createdAt,value
2023-03-27T00:01:00.491Z,7.40
2023-03-27T00:02:02.576Z,7.40
2023-03-27T00:03:05.355Z,7.40
2023-03-27T00:04:08.970Z,7.40
2023-03-27T00:05:10.435Z,7.40
2023-03-27T00:06:16.676Z,7.40
2023-03-27T00:07:19.943Z,7.40
2023-03-27T00:08:21.402Z,7.40
2023-03-27T00:09:22.839Z,7.40
2023-03-27T00:10:24.527Z,7.40
2023-03-27T00:11:26.065Z,7.40
2023-03-27T00:12:27.928Z,7.30
2023-03-27T00:13:29.835Z,7.30
2023-03-27T00:14:32.015Z,7.30
2023-03-27T00:15:35.908Z,7.20
2023-03-27T00:16:37.409Z,7.40
2023-03-27T00:17:38.870Z,7.40
2023-03-27T00:18:40.557Z,7.30
2023-03-27T00:19:42.359Z,7.30
2023-03-27T00:20:44.716Z,7.30
2023-03-27T00:21:46.327Z,7.30
2023-03-27T00:22:50.009Z,7.30
2023-03-27T00:23:52.325Z,7.30
2023-03-27T00:24:53.758Z,7.30
2023-03-27T00:25:57.582Z,7.30
2023-03-27T00:26:59.040Z,7.20
2023-03-27T00:28:00.916Z,7.20
2023-03-27T00:29:02.604Z,7.10
2023-03-27T00:30:06.345Z,7.10
2023-03-27T00:31:16.078Z,7.10
2023-03-27T00:32:17.776Z,7.10
2023-03-27T00:33:19.274Z,7.10
2023-03-27T00:34:20.751Z,7.20
2023-03-27T00:35:23.846Z,7.10
2023-03-27T00:36:25.272Z,7.10
2023-03-27T00:37:27.260Z,7.00
2023-03-27T00:38:29.538Z,7.00
2023-03-27T00:39:31.262Z,7.00
2023-03-27T00:40:32.738Z,6.90
2023-03-27T00:41:34.182Z,6.90
2023-03-27T00:42:36.189Z,6.90
2023-03-27T00:43:43.419Z,6.90
2023-03-27T00:44:44.963Z,6.90
2023-03-27T00:45:48.148Z,6.90
2023-03-27T00:46:50.134Z,6.90
2023-03-27T00:47:56.696Z,6.90
2023-03-27T00:49:01.562Z,7.00
2023-03-27T00:50:10.525Z,7.00
2023-03-27T00:51:12.294Z,7.00
2023-03-27T00:52:16.696Z,7.00
2023-03-27T00:53:24.541Z,6.90
2023-03-27T00:54:30.011Z,6.90
2023-03-27T00:55:33.564Z,6.90
2023-03-27T00:56:38.551Z,7.00
2023-03-27T00:57:42.706Z,6.90
2023-03-27T00:58:48.194Z,6.90
2023-03-27T00:59:52.553Z,7.00
2023-03-27T01:00:56.256Z,7.00
2023-03-27T01:02:00.519Z,7.00
2023-03-27T01:03:05.871Z,7.00
2023-03-27T01:04:09.104Z,7.10
2023-03-27T01:05:12.117Z,7.00
2023-03-27T01:06:16.924Z,6.90
2023-03-27T01:07:20.217Z,7.10
2023-03-27T01:08:22.923Z,7.00
2023-03-27T01:09:27.173Z,6.90
2023-03-27T01:11:07.813Z,6.90
2023-03-27T01:12:15.177Z,6.90
2023-03-27T01:13:47.215Z,6.90
2023-03-27T01:15:00.748Z,6.90
2023-03-27T01:16:22.778Z,6.90
2023-03-27T01:17:53.315Z,6.90
2023-03-27T01:19:09.540Z,6.90
2023-03-27T01:20:32.458Z,6.90
2023-03-27T01:21:52.369Z,6.80
2023-03-27T01:23:07.032Z,6.90
2023-03-27T01:24:34.578Z,6.80
2023-03-27T01:26:00.205Z,6.80
2023-03-27T01:27:07.551Z,6.80
2023-03-27T01:28:35.642Z,6.80
2023-03-27T01:30:04.441Z,6.80
2023-03-27T01:31:33.496Z,6.80
2023-03-27T01:33:04.782Z,6.70
2023-03-27T01:34:27.522Z,6.80
2023-03-27T01:35:44.049Z,6.70
2023-03-27T01:37:08.050Z,6.70
2023-03-27T01:38:19.361Z,6.70
2023-03-27T01:39:35.780Z,6.70
2023-03-27T01:40:55.340Z,6.80
2023-03-27T01:42:22.206Z,6.80
2023-03-27T01:43:36.730Z,6.80
2023-03-27T01:44:50.827Z,6.70
2023-03-27T01:46:06.669Z,6.70
2023-03-27T01:47:44.408Z,6.70
2023-03-27T01:48:56.131Z,6.70
2023-03-27T01:50:20.953Z,6.70
2023-03-27T01:51:35.743Z,6.70
2023-03-27T01:52:59.912Z,6.70
2023-03-27T01:54:15.413Z,6.70
2023-03-27T01:55:21.471Z,6.80
2023-03-27T01:56:34.368Z,6.80
2023-03-27T01:57:50.396Z,6.80
2023-03-27T01:59:03.925Z,6.80
2023-03-27T02:00:19.438Z,6.70
2023-03-27T02:01:36.459Z,6.80
2023-03-27T02:02:40.090Z,6.80
2023-03-27T02:03:46.204Z,6.80
2023-03-27T02:04:56.577Z,6.80
2023-03-27T02:06:28.327Z,6.90
2023-03-27T02:07:37.421Z,6.90
2023-03-27T02:09:05.675Z,6.90
2023-03-27T02:10:15.635Z,6.90
2023-03-27T02:11:17.809Z,6.80
2023-03-27T02:12:24.367Z,6.80
2023-03-27T02:13:33.859Z,6.80
2023-03-27T02:14:42.718Z,6.80
2023-03-27T02:15:47.049Z,6.80
2023-03-27T02:16:54.239Z,6.80
2023-03-27T02:18:05.978Z,6.80
2023-03-27T02:19:13.640Z,6.90
2023-03-27T02:20:16.372Z,6.90
2023-03-27T02:21:17.968Z,6.90
2023-03-27T02:22:20.238Z,7.00
2023-03-27T02:23:39.743Z,6.90
2023-03-27T02:24:43.281Z,7.00
2023-03-27T02:25:46.153Z,7.10
2023-03-27T02:26:52.617Z,7.10
2023-03-27T02:28:14.590Z,7.10
2023-03-27T02:29:52.195Z,7.00
2023-03-27T02:31:32.400Z,7.00
2023-03-27T02:32:46.632Z,7.00
2023-03-27T02:34:15.804Z,6.90
2023-03-27T02:35:49.454Z,6.90
2023-03-27T02:37:21.630Z,7.00
2023-03-27T02:39:02.385Z,7.00
2023-03-27T02:40:18.779Z,6.80
2023-03-27T02:41:49.370Z,6.90
2023-03-27T02:43:33.762Z,6.80
2023-03-27T02:44:52.686Z,6.80
2023-03-27T02:46:16.103Z,6.90
2023-03-27T02:47:28.496Z,6.90
2023-03-27T02:48:34.287Z,6.90
2023-03-27T02:49:41.832Z,6.80
2023-03-27T02:50:58.621Z,6.80
2023-03-27T02:52:08.946Z,6.90
2023-03-27T02:53:13.644Z,6.90
2023-03-27T02:54:23.445Z,6.80
2023-03-27T02:55:29.584Z,6.80
2023-03-27T02:56:34.718Z,6.80
2023-03-27T02:57:41.942Z,6.80
2023-03-27T02:59:36.136Z,6.80
2023-03-27T03:00:43.770Z,6.80
2023-03-27T03:02:09.525Z,6.80
2023-03-27T03:03:28.044Z,6.80
2023-03-27T03:04:46.483Z,6.80
2023-03-27T03:05:56.223Z,6.90
2023-03-27T03:06:58.850Z,6.90
2023-03-27T03:08:00.344Z,6.90
2023-03-27T03:09:05.973Z,6.90
2023-03-27T03:10:11.517Z,6.90
2023-03-27T03:11:14.878Z,6.90
2023-03-27T03:12:16.801Z,6.90
2023-03-27T03:13:20.548Z,6.90
2023-03-27T03:14:27.637Z,6.90
2023-03-27T03:15:29.114Z,6.90
2023-03-27T03:16:30.869Z,6.80
2023-03-27T03:17:32.295Z,6.80
2023-03-27T03:18:33.735Z,6.80
2023-03-27T03:19:36.362Z,6.80
2023-03-27T03:20:38.237Z,6.80
2023-03-27T03:21:40.915Z,6.80
2023-03-27T03:22:46.026Z,6.70
2023-03-27T03:23:58.670Z,6.60
2023-03-27T03:25:01.920Z,6.60
2023-03-27T03:26:04.020Z,6.50
2023-03-27T03:27:21.266Z,6.50
2023-03-27T03:28:37.914Z,6.50
2023-03-27T03:29:39.966Z,6.40
2023-03-27T03:30:50.556Z,6.30
2023-03-27T03:31:52.779Z,6.30
2023-03-27T03:32:54.979Z,6.30
2023-03-27T03:33:57.163Z,6.20
2023-03-27T03:34:58.709Z,6.10
2023-03-27T03:36:02.176Z,6.10
2023-03-27T03:37:10.584Z,5.90
2023-03-27T03:38:12.147Z,5.90
2023-03-27T03:39:21.959Z,5.90
2023-03-27T03:40:24.914Z,5.80
2023-03-27T03:41:31.272Z,5.80
2023-03-27T03:42:35.345Z,5.70
2023-03-27T03:43:37.753Z,5.80
2023-03-27T03:44:39.464Z,5.80
2023-03-27T03:45:51.756Z,5.80
2023-03-27T03:46:53.159Z,5.80
2023-03-27T03:47:56.086Z,5.80
2023-03-27T03:48:59.492Z,5.80
2023-03-27T03:50:01.530Z,5.80
2023-03-27T03:51:05.610Z,5.80
2023-03-27T03:52:07.464Z,5.70
2023-03-27T03:53:09.047Z,5.70
2023-03-27T03:54:11.243Z,5.70
2023-03-27T03:55:17.255Z,5.70
2023-03-27T03:56:18.820Z,5.70
2023-03-27T03:57:25.954Z,5.70
2023-03-27T03:58:37.818Z,5.70
2023-03-27T03:59:40.322Z,5.70
2023-03-27T04:01:09.028Z,5.60
2023-03-27T04:02:29.656Z,5.60
2023-03-27T04:03:37.866Z,5.60
2023-03-27T04:04:40.144Z,5.60
2023-03-27T04:05:45.653Z,5.50
2023-03-27T04:06:47.486Z,5.50
2023-03-27T04:07:49.840Z,5.40
2023-03-27T04:08:54.395Z,5.30
2023-03-27T04:10:22.556Z,5.30
2023-03-27T04:11:24.000Z,5.30
2023-03-27T04:12:36.738Z,5.30
2023-03-27T04:13:43.089Z,5.30
2023-03-27T04:14:55.673Z,5.20
2023-03-27T04:16:15.936Z,5.30
2023-03-27T04:17:26.359Z,5.30
2023-03-27T04:18:35.446Z,5.30
2023-03-27T04:19:41.809Z,5.30
2023-03-27T04:20:43.613Z,5.30
2023-03-27T04:21:47.690Z,5.30
2023-03-27T04:22:52.553Z,5.30
2023-03-27T04:24:02.259Z,5.20
2023-03-27T04:25:17.791Z,5.30
2023-03-27T04:26:26.407Z,5.30
2023-03-27T04:27:54.035Z,5.30
2023-03-27T04:29:00.239Z,5.20
2023-03-27T04:30:33.743Z,5.20
2023-03-27T04:31:53.689Z,5.20
2023-03-27T04:33:19.533Z,5.20
2023-03-27T04:34:27.247Z,5.10
2023-03-27T04:35:42.457Z,5.10
2023-03-27T04:36:50.261Z,5.10
2023-03-27T04:37:56.945Z,5.10
2023-03-27T04:39:17.315Z,5.00
2023-03-27T04:40:19.064Z,4.90
2023-03-27T04:41:21.248Z,4.90
2023-03-27T04:42:23.508Z,4.90
2023-03-27T04:43:26.140Z,4.90
2023-03-27T04:44:28.573Z,4.90
2023-03-27T04:45:30.068Z,4.90
2023-03-27T04:46:31.694Z,4.80
2023-03-27T04:47:40.743Z,4.80
2023-03-27T04:48:43.651Z,4.90
2023-03-27T04:50:01.328Z,4.90
2023-03-27T04:51:03.493Z,4.80
2023-03-27T04:52:08.565Z,4.80
2023-03-27T04:53:10.360Z,4.80
2023-03-27T04:54:16.408Z,4.80
2023-03-27T04:55:23.009Z,4.80
2023-03-27T04:56:25.003Z,4.80
2023-03-27T04:57:30.910Z,4.80
2023-03-27T04:58:37.290Z,4.90
2023-03-27T04:59:43.979Z,5.00
2023-03-27T05:01:05.649Z,5.00
2023-03-27T05:02:31.285Z,5.10
2023-03-27T05:03:40.395Z,5.00
2023-03-27T05:04:48.084Z,5.00
2023-03-27T05:05:53.680Z,5.00
2023-03-27T05:06:56.616Z,5.00
2023-03-27T05:07:58.223Z,5.00
2023-03-27T05:09:00.989Z,5.00
2023-03-27T05:10:06.407Z,5.00
2023-03-27T05:11:08.743Z,5.00
2023-03-27T05:12:15.554Z,4.90
2023-03-27T05:13:28.479Z,4.90
2023-03-27T05:14:30.262Z,4.90
2023-03-27T05:15:33.577Z,4.90
2023-03-27T05:16:37.074Z,5.00
2023-03-27T05:17:42.146Z,4.90
2023-03-27T05:18:45.221Z,4.90
2023-03-27T05:19:46.775Z,4.90
2023-03-27T05:20:50.084Z,4.90
2023-03-27T05:21:52.837Z,4.90
2023-03-27T05:22:56.368Z,4.80
2023-03-27T05:24:02.428Z,4.80
2023-03-27T05:25:04.470Z,4.80
2023-03-27T05:26:06.747Z,4.80
2023-03-27T05:27:20.640Z,4.80
2023-03-27T05:28:25.359Z,4.70
2023-03-27T05:29:26.811Z,4.70
2023-03-27T05:30:36.781Z,4.70
2023-03-27T05:32:01.143Z,4.70
2023-03-27T05:33:16.461Z,4.70
2023-03-27T05:34:21.837Z,4.60
2023-03-27T05:35:28.173Z,4.70
2023-03-27T05:36:32.520Z,4.70
2023-03-27T05:37:34.021Z,4.70
2023-03-27T05:38:58.169Z,4.60
2023-03-27T05:40:07.269Z,4.70
2023-03-27T05:41:12.006Z,4.70
2023-03-27T05:42:18.072Z,4.60
2023-03-27T05:43:19.792Z,4.60
2023-03-27T05:44:21.669Z,4.60
2023-03-27T05:45:24.258Z,4.60
2023-03-27T05:46:25.768Z,4.50
2023-03-27T05:47:52.575Z,4.50
2023-03-27T05:48:55.190Z,4.50
2023-03-27T05:49:57.679Z,4.50
2023-03-27T05:50:59.295Z,4.50
2023-03-27T05:52:00.742Z,4.50
2023-03-27T05:53:09.921Z,4.50
2023-03-27T05:54:15.177Z,4.50
2023-03-27T05:55:27.412Z,4.50
2023-03-27T05:56:30.677Z,4.50
2023-03-27T05:57:38.317Z,4.50
2023-03-27T05:58:39.736Z,4.50
2023-03-27T05:59:41.333Z,4.50
2023-03-27T06:01:03.903Z,4.50
2023-03-27T06:02:06.388Z,4.40
2023-03-27T06:03:20.544Z,4.40
2023-03-27T06:04:34.180Z,4.40
2023-03-27T06:05:45.266Z,4.30
2023-03-27T06:06:46.889Z,4.40
2023-03-27T06:07:48.755Z,4.40
2023-03-27T06:08:50.992Z,4.40
2023-03-27T06:09:52.578Z,4.50
2023-03-27T06:11:23.468Z,4.40
2023-03-27T06:12:26.002Z,4.40
2023-03-27T06:13:36.149Z,4.40
2023-03-27T06:14:43.749Z,4.40
2023-03-27T06:16:20.727Z,4.40
2023-03-27T06:17:48.059Z,4.40
2023-03-27T06:18:49.904Z,4.40
2023-03-27T06:19:53.101Z,4.40
2023-03-27T06:20:55.058Z,4.40
2023-03-27T06:21:56.942Z,4.50
2023-03-27T06:23:00.039Z,4.40
2023-03-27T06:24:06.227Z,4.40
2023-03-27T06:25:08.937Z,4.40
2023-03-27T06:26:10.672Z,4.40
2023-03-27T06:27:13.368Z,4.40
2023-03-27T06:28:15.433Z,4.40
2023-03-27T06:29:21.586Z,4.40
2023-03-27T06:30:29.517Z,4.50
2023-03-27T06:31:49.857Z,4.40
2023-03-27T06:33:01.536Z,4.40
2023-03-27T06:34:03.174Z,4.40
2023-03-27T06:35:31.026Z,4.30
2023-03-27T06:36:45.340Z,4.40
2023-03-27T06:37:51.339Z,4.30
2023-03-27T06:38:56.479Z,4.40
2023-03-27T06:39:58.014Z,4.40
2023-03-27T06:41:00.266Z,4.50
2023-03-27T06:42:21.022Z,4.50
2023-03-27T06:43:32.822Z,4.50
2023-03-27T06:44:42.824Z,4.60
2023-03-27T06:45:56.903Z,4.60
2023-03-27T06:47:01.433Z,4.60
2023-03-27T06:48:24.309Z,4.60
2023-03-27T06:49:29.922Z,4.70
2023-03-27T06:50:33.354Z,4.60
2023-03-27T06:51:35.155Z,4.70
2023-03-27T06:52:37.605Z,4.70
2023-03-27T06:53:55.451Z,4.70
2023-03-27T06:54:58.934Z,4.70
2023-03-27T06:56:00.560Z,4.70
2023-03-27T06:57:15.808Z,4.70
2023-03-27T06:58:23.626Z,4.70
2023-03-27T06:59:25.798Z,4.70
2023-03-27T07:00:35.311Z,4.70
2023-03-27T07:02:11.272Z,4.60
2023-03-27T07:03:33.079Z,4.60
2023-03-27T07:04:34.711Z,4.60
2023-03-27T07:05:46.019Z,4.60
2023-03-27T07:06:49.031Z,4.60
2023-03-27T07:07:51.420Z,4.60
2023-03-27T07:08:53.489Z,4.60
2023-03-27T07:09:54.886Z,4.60
2023-03-27T07:12:11.610Z,4.70
2023-03-27T07:13:15.680Z,4.70
2023-03-27T07:14:17.518Z,4.70
2023-03-27T07:15:20.493Z,4.80
2023-03-27T07:16:22.419Z,4.80
2023-03-27T07:17:25.339Z,4.80
2023-03-27T07:18:31.564Z,4.80
2023-03-27T07:19:33.557Z,4.80
2023-03-27T07:20:41.664Z,4.80
2023-03-27T07:21:49.016Z,4.80
2023-03-27T07:22:51.587Z,4.70
2023-03-27T07:24:06.259Z,4.60
2023-03-27T07:25:12.660Z,4.50
2023-03-27T07:26:17.244Z,4.40
2023-03-27T07:27:34.613Z,4.40
2023-03-27T07:28:38.404Z,4.40
2023-03-27T07:29:44.217Z,4.40
2023-03-27T07:30:51.121Z,4.30
2023-03-27T07:31:58.801Z,4.30
2023-03-27T07:33:28.660Z,4.30
2023-03-27T07:34:30.204Z,4.30
2023-03-27T07:35:52.388Z,4.20
2023-03-27T07:37:11.742Z,4.20
2023-03-27T07:38:22.323Z,4.20
2023-03-27T07:39:46.225Z,4.20
2023-03-27T07:40:50.393Z,4.20
2023-03-27T07:42:00.941Z,4.20
2023-03-27T07:43:09.128Z,4.20
2023-03-27T07:44:11.947Z,4.20
2023-03-27T07:45:27.682Z,4.20
2023-03-27T07:46:32.187Z,4.10
2023-03-27T07:47:37.483Z,4.20
2023-03-27T07:48:41.814Z,4.20
2023-03-27T07:49:49.869Z,4.20
2023-03-27T07:51:10.792Z,4.20
2023-03-27T07:52:16.409Z,4.20
2023-03-27T07:53:32.670Z,4.10
2023-03-27T07:54:39.782Z,4.00
2023-03-27T07:55:41.993Z,4.00
2023-03-27T07:56:44.240Z,4.00
2023-03-27T07:58:07.098Z,4.00
2023-03-27T07:59:11.886Z,4.00
2023-03-27T08:00:16.398Z,4.00
2023-03-27T08:01:17.976Z,4.00
2023-03-27T08:02:21.025Z,4.10
2023-03-27T08:03:25.920Z,4.00
2023-03-27T08:04:29.868Z,4.00
2023-03-27T08:05:58.309Z,4.00
2023-03-27T08:07:02.135Z,4.00
2023-03-27T08:08:04.976Z,4.00
2023-03-27T08:09:18.424Z,4.10
2023-03-27T08:10:20.894Z,4.10
2023-03-27T08:11:33.231Z,4.20
2023-03-27T08:12:35.878Z,4.20
2023-03-27T08:13:37.601Z,4.20
2023-03-27T08:14:41.616Z,4.20
2023-03-27T08:15:51.498Z,4.20
2023-03-27T08:17:05.176Z,4.10
2023-03-27T08:18:14.986Z,4.00
2023-03-27T08:19:18.656Z,3.90
2023-03-27T08:20:24.265Z,3.80
2023-03-27T08:21:26.219Z,3.80
2023-03-27T08:22:29.253Z,3.80
2023-03-27T08:24:09.114Z,3.80
2023-03-27T08:25:36.795Z,3.70
2023-03-27T08:26:43.123Z,3.70
2023-03-27T08:27:47.090Z,3.70
2023-03-27T08:28:54.093Z,3.80
2023-03-27T08:29:58.348Z,3.80
2023-03-27T08:31:02.609Z,3.90
2023-03-27T08:32:10.723Z,3.90
2023-03-27T08:33:14.817Z,4.10
2023-03-27T08:34:17.598Z,4.10
2023-03-27T08:35:21.566Z,4.10
2023-03-27T08:36:23.874Z,4.10
2023-03-27T08:37:27.339Z,4.20
2023-03-27T08:38:49.162Z,4.20
2023-03-27T08:39:58.862Z,4.20
2023-03-27T08:41:03.617Z,4.20
2023-03-27T08:42:19.313Z,4.30
2023-03-27T08:43:33.905Z,4.30
2023-03-27T08:44:37.264Z,4.30
2023-03-27T08:45:49.838Z,4.30
2023-03-27T08:46:57.434Z,4.30
2023-03-27T08:48:15.259Z,4.40
2023-03-27T08:49:22.995Z,4.40
2023-03-27T08:50:48.152Z,4.50
2023-03-27T08:52:05.328Z,4.50
2023-03-27T08:53:19.525Z,4.50
2023-03-27T08:54:25.596Z,4.50
2023-03-27T08:55:41.431Z,4.50
2023-03-27T08:56:58.211Z,4.50
2023-03-27T08:58:00.211Z,4.50
2023-03-27T08:59:01.932Z,4.50
2023-03-27T09:00:09.850Z,4.60
2023-03-27T09:01:45.727Z,4.60
2023-03-27T09:03:17.137Z,4.60
2023-03-27T09:04:49.003Z,4.70
2023-03-27T09:06:02.703Z,4.60
2023-03-27T09:07:15.863Z,4.60
2023-03-27T09:08:52.392Z,4.60
2023-03-27T09:10:27.806Z,4.70
2023-03-27T09:11:53.773Z,4.80
2023-03-27T09:13:16.895Z,4.90
2023-03-27T09:14:34.707Z,4.80
2023-03-27T09:15:46.563Z,4.80
2023-03-27T09:16:50.294Z,4.80
2023-03-27T09:18:11.181Z,4.90
2023-03-27T09:19:21.629Z,4.90
2023-03-27T09:20:35.556Z,5.00
2023-03-27T09:22:05.842Z,5.00
2023-03-27T09:23:39.554Z,5.10
2023-03-27T09:25:19.385Z,5.20
2023-03-27T09:26:36.307Z,5.20
2023-03-27T09:27:40.753Z,5.30
2023-03-27T09:29:22.226Z,5.30
2023-03-27T09:30:44.032Z,5.30
2023-03-27T09:31:54.331Z,5.40
2023-03-27T09:33:00.129Z,5.40
2023-03-27T09:34:11.397Z,5.40
2023-03-27T09:35:14.571Z,5.40
2023-03-27T09:36:16.436Z,5.30
2023-03-27T09:37:18.144Z,5.30
2023-03-27T09:38:31.769Z,5.30
2023-03-27T09:39:35.636Z,5.40
2023-03-27T09:41:15.712Z,5.30
2023-03-27T09:42:37.173Z,5.40
2023-03-27T09:43:49.212Z,5.50
2023-03-27T09:44:56.800Z,5.60
2023-03-27T09:46:00.660Z,5.60
2023-03-27T09:47:04.546Z,5.60
2023-03-27T09:48:14.245Z,5.60
2023-03-27T09:49:19.756Z,5.60
2023-03-27T09:50:47.363Z,5.50
2023-03-27T09:52:32.766Z,5.60
2023-03-27T09:53:58.576Z,5.90
2023-03-27T09:55:24.246Z,6.00
2023-03-27T09:56:26.221Z,6.10
2023-03-27T09:57:35.798Z,6.20
2023-03-27T09:58:44.314Z,6.20
2023-03-27T09:59:59.642Z,6.30
2023-03-27T10:01:10.588Z,6.20
2023-03-27T10:02:23.177Z,6.20
2023-03-27T10:03:25.303Z,6.20
2023-03-27T10:04:31.209Z,6.20
2023-03-27T10:05:35.533Z,6.20
2023-03-27T10:06:43.202Z,6.30
2023-03-27T10:07:51.489Z,6.20
2023-03-27T10:09:29.326Z,6.20
2023-03-27T10:10:42.026Z,6.20
2023-03-27T10:12:20.698Z,6.10
2023-03-27T10:13:27.822Z,6.10
2023-03-27T10:14:30.972Z,6.00
2023-03-27T10:15:34.187Z,5.90
2023-03-27T10:16:41.069Z,5.90
2023-03-27T10:17:49.050Z,6.00
2023-03-27T10:18:55.203Z,6.10
2023-03-27T10:20:14.310Z,6.00
2023-03-27T10:21:37.860Z,6.00
2023-03-27T10:22:54.462Z,6.10
2023-03-27T10:24:02.294Z,6.20
2023-03-27T10:25:32.326Z,6.20
2023-03-27T10:27:08.227Z,6.10
2023-03-27T10:28:21.701Z,6.00
2023-03-27T10:29:42.150Z,6.10
2023-03-27T10:31:00.154Z,6.20
2023-03-27T10:32:09.614Z,6.30
2023-03-27T10:33:11.272Z,6.40
2023-03-27T10:34:29.492Z,6.50
2023-03-27T10:35:44.309Z,6.70
2023-03-27T10:36:55.347Z,6.90
2023-03-27T10:38:01.245Z,7.10
2023-03-27T10:39:19.629Z,7.40
2023-03-27T10:40:42.562Z,7.50
2023-03-27T10:41:52.907Z,7.50
2023-03-27T10:42:57.000Z,7.10
2023-03-27T10:43:58.937Z,7.20
2023-03-27T10:45:01.140Z,7.10
2023-03-27T10:46:09.884Z,7.00
2023-03-27T10:47:27.513Z,7.10
2023-03-27T10:48:39.707Z,7.10
2023-03-27T10:50:18.578Z,6.90
2023-03-27T10:51:46.390Z,6.70
2023-03-27T10:53:14.872Z,6.50
2023-03-27T10:55:01.334Z,6.40
2023-03-27T10:56:21.850Z,6.30
2023-03-27T10:57:29.330Z,6.10
2023-03-27T10:58:42.043Z,6.10
2023-03-27T10:59:52.910Z,6.20
2023-03-27T11:01:20.982Z,6.20
2023-03-27T11:02:33.276Z,6.40
2023-03-27T11:03:46.758Z,6.60
2023-03-27T11:05:06.891Z,6.80
2023-03-27T11:06:15.192Z,6.90
2023-03-27T11:07:33.972Z,6.90
2023-03-27T11:09:16.054Z,6.90
2023-03-27T11:10:37.873Z,6.80
2023-03-27T11:11:45.458Z,6.50
2023-03-27T11:12:56.250Z,6.40
2023-03-27T11:14:05.418Z,6.30
2023-03-27T11:15:15.438Z,6.30
2023-03-27T11:16:28.621Z,6.30
2023-03-27T11:18:03.096Z,6.10
2023-03-27T11:19:42.990Z,6.10
2023-03-27T11:21:12.784Z,6.00
2023-03-27T11:22:42.961Z,6.00
2023-03-27T11:23:52.966Z,6.00
2023-03-27T11:25:46.912Z,6.20
2023-03-27T11:27:28.902Z,6.40
2023-03-27T11:28:59.219Z,6.50
2023-03-27T11:30:08.463Z,6.70
2023-03-27T11:31:32.290Z,6.80
2023-03-27T11:32:52.756Z,6.80
2023-03-27T11:34:07.245Z,6.80
2023-03-27T11:35:21.503Z,6.70
2023-03-27T11:36:52.013Z,6.70
2023-03-27T11:38:23.138Z,6.80
2023-03-27T11:39:50.106Z,6.70
2023-03-27T11:40:52.826Z,6.70
2023-03-27T11:41:58.183Z,6.70
2023-03-27T11:43:01.277Z,6.70
2023-03-27T11:44:04.119Z,6.80
2023-03-27T11:46:19.156Z,6.80
2023-03-27T11:47:36.010Z,6.80
2023-03-27T11:48:56.900Z,6.60
2023-03-27T11:50:18.798Z,6.50
2023-03-27T11:51:25.737Z,6.30
2023-03-27T11:52:59.500Z,6.20
2023-03-27T11:54:27.048Z,6.20
2023-03-27T11:56:00.363Z,6.20
2023-03-27T11:57:05.853Z,6.20
2023-03-27T11:59:15.595Z,6.20
2023-03-27T12:00:49.187Z,6.40
2023-03-27T12:02:22.260Z,6.60
2023-03-27T12:03:43.593Z,6.80
2023-03-27T12:05:15.858Z,6.80
2023-03-27T12:06:33.892Z,7.00
2023-03-27T12:08:07.050Z,7.10
2023-03-27T12:09:25.418Z,7.20
2023-03-27T12:10:50.289Z,7.20
2023-03-27T12:12:14.495Z,7.10
2023-03-27T12:14:01.248Z,7.10
2023-03-27T12:15:36.130Z,7.10
2023-03-27T12:17:04.496Z,7.30
2023-03-27T12:19:01.972Z,7.40
2023-03-27T12:20:31.202Z,7.50
2023-03-27T12:22:22.565Z,7.60
2023-03-27T12:23:46.770Z,7.60
2023-03-27T12:25:20.605Z,7.70
2023-03-27T12:26:52.457Z,7.90
2023-03-27T12:28:22.921Z,8.00
2023-03-27T12:30:01.599Z,7.90
2023-03-27T12:31:06.742Z,8.00
2023-03-27T12:32:26.831Z,8.00
2023-03-27T12:33:50.650Z,8.00
2023-03-27T12:35:00.815Z,8.10
2023-03-27T12:36:15.860Z,8.20
2023-03-27T12:37:27.004Z,8.30
2023-03-27T12:38:36.507Z,8.40
2023-03-27T12:39:48.966Z,8.50
2023-03-27T12:41:03.187Z,8.50
2023-03-27T12:42:43.702Z,8.60
2023-03-27T12:43:53.859Z,8.50
2023-03-27T12:45:14.618Z,8.60
2023-03-27T12:46:24.498Z,8.60
2023-03-27T12:47:30.071Z,8.70
2023-03-27T12:48:55.225Z,8.70
2023-03-27T12:49:58.919Z,8.70
2023-03-27T12:51:14.117Z,8.60
2023-03-27T12:52:19.300Z,8.70
2023-03-27T12:53:36.886Z,8.70
2023-03-27T12:55:13.936Z,8.70
2023-03-27T12:57:13.602Z,8.70
2023-03-27T12:58:34.298Z,8.50
2023-03-27T12:59:48.349Z,8.60
2023-03-27T13:01:03.091Z,8.50
2023-03-27T13:02:43.383Z,8.50
2023-03-27T13:04:15.846Z,8.20
2023-03-27T13:05:28.513Z,8.20
2023-03-27T13:06:55.964Z,8.20
2023-03-27T13:08:33.850Z,8.20
2023-03-27T13:09:54.484Z,8.00
2023-03-27T13:11:04.138Z,7.90
2023-03-27T13:12:32.128Z,7.90
2023-03-27T13:13:43.563Z,8.00
2023-03-27T13:15:06.838Z,7.90
2023-03-27T13:16:32.784Z,8.00
2023-03-27T13:17:44.075Z,7.90
2023-03-27T13:19:04.123Z,7.90
2023-03-27T13:20:27.243Z,7.70
2023-03-27T13:21:41.374Z,7.70
2023-03-27T13:22:43.283Z,7.80
2023-03-27T13:24:16.807Z,7.80
2023-03-27T13:25:30.523Z,7.80
2023-03-27T13:26:41.634Z,8.00
2023-03-27T13:28:16.916Z,8.00
2023-03-27T13:29:41.188Z,8.20
2023-03-27T13:30:56.307Z,8.20
2023-03-27T13:32:38.980Z,8.00
2023-03-27T13:34:13.409Z,7.90
2023-03-27T13:35:19.431Z,7.70
2023-03-27T13:36:24.499Z,7.70
2023-03-27T13:37:36.647Z,7.70
2023-03-27T13:39:13.826Z,7.70
2023-03-27T13:40:26.758Z,7.80
2023-03-27T13:41:44.546Z,8.00
2023-03-27T13:43:21.486Z,7.80
2023-03-27T13:44:41.671Z,7.80
2023-03-27T13:45:50.352Z,7.80
2023-03-27T13:47:09.204Z,7.50
2023-03-27T13:48:14.009Z,7.60
2023-03-27T13:49:44.832Z,7.70
2023-03-27T13:51:08.028Z,7.80
2023-03-27T13:52:22.661Z,7.90
2023-03-27T13:54:01.189Z,7.90
2023-03-27T13:55:53.547Z,8.00
2023-03-27T13:57:31.216Z,8.00
2023-03-27T13:58:36.004Z,8.10
2023-03-27T13:59:46.060Z,8.20
2023-03-27T14:01:13.508Z,8.10
2023-03-27T14:02:22.336Z,8.10
2023-03-27T14:03:55.174Z,8.20
2023-03-27T14:05:15.284Z,8.20
2023-03-27T14:06:32.431Z,8.10
2023-03-27T14:07:55.067Z,8.20
2023-03-27T14:09:12.454Z,8.30
2023-03-27T14:10:44.086Z,8.30
2023-03-27T14:12:17.127Z,8.30
2023-03-27T14:14:07.688Z,8.40
2023-03-27T14:15:32.791Z,8.50
2023-03-27T14:17:20.926Z,8.60
2023-03-27T14:18:31.050Z,8.80
2023-03-27T14:19:57.794Z,8.80
2023-03-27T14:21:12.124Z,8.80
2023-03-27T14:22:42.757Z,8.80
2023-03-27T14:23:56.070Z,8.90
2023-03-27T14:25:34.318Z,8.90
2023-03-27T14:26:55.867Z,9.10
2023-03-27T14:27:58.132Z,9.50
2023-03-27T14:29:02.082Z,9.40
2023-03-27T14:30:19.247Z,9.20
2023-03-27T14:31:35.620Z,9.20
2023-03-27T14:32:43.007Z,9.10
2023-03-27T14:34:01.707Z,8.80
2023-03-27T14:35:05.791Z,8.80
2023-03-27T14:36:16.568Z,8.90
2023-03-27T14:37:30.611Z,9.00
2023-03-27T14:38:39.071Z,9.10
2023-03-27T14:39:53.833Z,9.10
2023-03-27T14:40:58.844Z,8.90
2023-03-27T14:42:17.122Z,9.10
2023-03-27T14:43:22.717Z,9.20
2023-03-27T14:44:32.120Z,9.10
2023-03-27T14:45:40.180Z,8.90
2023-03-27T14:46:47.973Z,8.90
2023-03-27T14:48:21.296Z,8.90
2023-03-27T14:49:30.345Z,9.00
2023-03-27T14:50:38.744Z,9.00
2023-03-27T14:51:42.704Z,8.90
2023-03-27T14:52:55.034Z,8.90
2023-03-27T14:54:18.922Z,8.80
2023-03-27T14:55:29.762Z,8.70
2023-03-27T14:56:57.109Z,8.60
2023-03-27T14:58:18.429Z,8.50
2023-03-27T14:59:25.775Z,8.60
2023-03-27T15:00:37.827Z,8.40
2023-03-27T15:01:40.403Z,8.40
2023-03-27T15:02:44.099Z,8.50
2023-03-27T15:03:46.399Z,8.60
2023-03-27T15:04:48.313Z,8.50
2023-03-27T15:06:00.831Z,8.50
2023-03-27T15:07:21.016Z,8.50
2023-03-27T15:08:37.223Z,8.20
2023-03-27T15:10:07.099Z,8.20
2023-03-27T15:11:38.395Z,8.40
2023-03-27T15:12:48.572Z,8.60
2023-03-27T15:13:51.496Z,8.70
2023-03-27T15:15:00.806Z,8.80
2023-03-27T15:16:04.223Z,8.90
2023-03-27T15:17:17.757Z,9.00
2023-03-27T15:18:32.100Z,8.70
2023-03-27T15:19:45.585Z,8.30
2023-03-27T15:20:50.685Z,8.30
2023-03-27T15:22:07.592Z,8.40
2023-03-27T15:23:20.480Z,8.40
2023-03-27T15:24:50.893Z,8.50
2023-03-27T15:26:01.734Z,8.50
2023-03-27T15:27:04.612Z,8.20
2023-03-27T15:28:14.100Z,8.20
2023-03-27T15:29:40.888Z,8.10
2023-03-27T15:30:51.419Z,8.00
2023-03-27T15:31:56.089Z,7.80
2023-03-27T15:33:02.207Z,7.80
2023-03-27T15:34:21.276Z,7.70
2023-03-27T15:35:40.534Z,7.60
2023-03-27T15:36:43.605Z,7.50
2023-03-27T15:37:45.289Z,7.40
2023-03-27T15:38:46.781Z,7.50
2023-03-27T15:40:13.447Z,7.50
2023-03-27T15:41:35.037Z,7.50
2023-03-27T15:43:07.777Z,7.40
2023-03-27T15:44:12.903Z,7.40
2023-03-27T15:45:23.230Z,7.30
2023-03-27T15:46:26.819Z,7.30
2023-03-27T15:47:31.000Z,7.20
2023-03-27T15:48:35.291Z,7.30
2023-03-27T15:49:42.832Z,7.30
2023-03-27T15:50:58.456Z,7.40
2023-03-27T15:52:21.148Z,7.50
2023-03-27T15:53:36.858Z,7.60
2023-03-27T15:54:56.709Z,7.60
2023-03-27T15:56:00.562Z,7.60
2023-03-27T15:57:09.894Z,7.70
2023-03-27T15:58:23.330Z,7.70
2023-03-27T15:59:26.871Z,7.90
2023-03-27T16:00:30.194Z,8.00
2023-03-27T16:01:33.415Z,7.90
2023-03-27T16:02:36.096Z,7.90
2023-03-27T16:03:41.841Z,8.00
2023-03-27T16:04:49.765Z,8.10
2023-03-27T16:05:56.503Z,8.00
2023-03-27T16:07:33.531Z,8.10
2023-03-27T16:08:37.408Z,8.00
2023-03-27T16:10:02.210Z,8.10
2023-03-27T16:11:05.100Z,7.90
2023-03-27T16:12:06.583Z,7.90